sensor_id;sensor_type;location;lat;lon;timestamp;pressure;altitude;pressure_sealevel;temperature;humidity
39949;BME280;29070;48.102;-1.652;2023-02-16T00:03:47;102318.56;;;9.77;77.89
39949;BME280;29070;48.102;-1.652;2023-02-16T00:08:50;102313.03;;;9.80;77.97
39949;BME280;29070;48.102;-1.652;2023-02-16T00:13:51;102315.78;;;9.79;78.01
39949;BME280;29070;48.102;-1.652;2023-02-16T00:18:53;102315.78;;;9.79;78.14
39949;BME280;29070;48.102;-1.652;2023-02-16T00:23:54;102315.94;;;9.77;78.33
39949;BME280;29070;48.102;-1.652;2023-02-16T00:28:55;102304.47;;;9.78;78.40
39949;BME280;29070;48.102;-1.652;2023-02-16T00:34:15;102311.66;;;9.76;78.15
39949;BME280;29070;48.102;-1.652;2023-02-16T00:39:23;102317.22;;;9.73;78.46
39949;BME280;29070;48.102;-1.652;2023-02-16T00:49:32;102326.03;;;9.72;78.87
39949;BME280;29070;48.102;-1.652;2023-02-16T00:54:33;102324.38;;;9.71;79.12
39949;BME280;29070;48.102;-1.652;2023-02-16T00:59:33;102324.09;;;9.74;79.06
39949;BME280;29070;48.102;-1.652;2023-02-16T01:04:33;102321.25;;;9.67;79.04
39949;BME280;29070;48.102;-1.652;2023-02-16T01:09:34;102315.72;;;9.70;79.13
39949;BME280;29070;48.102;-1.652;2023-02-16T01:14:54;102311.75;;;9.66;79.13
39949;BME280;29070;48.102;-1.652;2023-02-16T01:19:54;102318.63;;;9.67;79.17
39949;BME280;29070;48.102;-1.652;2023-02-16T01:24:55;102326.19;;;9.70;79.52
39949;BME280;29070;48.102;-1.652;2023-02-16T01:29:55;102325.38;;;9.70;79.42
39949;BME280;29070;48.102;-1.652;2023-02-16T01:34:55;102318.47;;;9.69;79.94
39949;BME280;29070;48.102;-1.652;2023-02-16T01:39:56;102319.31;;;9.69;79.80
39949;BME280;29070;48.102;-1.652;2023-02-16T01:45:10;102311.44;;;9.69;79.73
39949;BME280;29070;48.102;-1.652;2023-02-16T01:50:15;102319.66;;;9.74;79.64
39949;BME280;29070;48.102;-1.652;2023-02-16T01:55:23;102317.75;;;9.77;79.74
39949;BME280;29070;48.102;-1.652;2023-02-16T02:00:31;102307.06;;;9.78;79.96
39949;BME280;29070;48.102;-1.652;2023-02-16T02:05:50;102299.38;;;9.77;80.18
39949;BME280;29070;48.102;-1.652;2023-02-16T02:10:57;102302.81;;;9.77;80.02
39949;BME280;29070;48.102;-1.652;2023-02-16T02:16:00;102294.97;;;9.77;80.29
39949;BME280;29070;48.102;-1.652;2023-02-16T02:26:45;102264.53;;;9.84;80.37
39949;BME280;29070;48.102;-1.652;2023-02-16T02:37:10;102253.91;;;9.86;80.64
39949;BME280;29070;48.102;-1.652;2023-02-16T02:47:42;102255.53;;;9.87;80.73
39949;BME280;29070;48.102;-1.652;2023-02-16T02:52:42;102247.22;;;9.91;80.83
39949;BME280;29070;48.102;-1.652;2023-02-16T02:57:46;102249.16;;;9.89;80.92
39949;BME280;29070;48.102;-1.652;2023-02-16T03:03:23;102249.84;;;9.91;81.19
39949;BME280;29070;48.102;-1.652;2023-02-16T03:08:31;102250.66;;;9.92;81.12
39949;BME280;29070;48.102;-1.652;2023-02-16T03:13:36;102242.50;;;9.95;81.29
39949;BME280;29070;48.102;-1.652;2023-02-16T03:18:40;102242.63;;;9.93;81.12
39949;BME280;29070;48.102;-1.652;2023-02-16T03:24:02;102244.44;;;9.93;80.98
39949;BME280;29070;48.102;-1.652;2023-02-16T03:29:24;102243.31;;;9.96;81.14
39949;BME280;29070;48.102;-1.652;2023-02-16T03:34:27;102246.91;;;9.95;81.31
39949;BME280;29070;48.102;-1.652;2023-02-16T03:39:29;102254.47;;;9.98;81.57
39949;BME280;29070;48.102;-1.652;2023-02-16T03:44:30;102257.09;;;9.98;81.84
39949;BME280;29070;48.102;-1.652;2023-02-16T03:49:30;102249.91;;;10.00;81.73
39949;BME280;29070;48.102;-1.652;2023-02-16T03:54:30;102256.50;;;10.04;81.83
39949;BME280;29070;48.102;-1.652;2023-02-16T03:59:31;102260.59;;;10.06;81.98
39949;BME280;29070;48.102;-1.652;2023-02-16T04:04:31;102255.84;;;10.10;81.98
39949;BME280;29070;48.102;-1.652;2023-02-16T04:09:31;102248.13;;;10.08;82.24
39949;BME280;29070;48.102;-1.652;2023-02-16T04:14:32;102245.06;;;10.13;82.12
39949;BME280;29070;48.102;-1.652;2023-02-16T04:19:32;102247.53;;;10.15;82.29
39949;BME280;29070;48.102;-1.652;2023-02-16T04:24:32;102252.78;;;10.15;82.39
39949;BME280;29070;48.102;-1.652;2023-02-16T04:29:33;102257.03;;;10.16;82.39
39949;BME280;29070;48.102;-1.652;2023-02-16T04:34:33;102252.94;;;10.13;82.46
39949;BME280;29070;48.102;-1.652;2023-02-16T04:39:34;102257.53;;;10.11;82.52
39949;BME280;29070;48.102;-1.652;2023-02-16T04:44:34;102244.41;;;10.11;82.51
39949;BME280;29070;48.102;-1.652;2023-02-16T04:49:34;102239.81;;;10.13;82.71
39949;BME280;29070;48.102;-1.652;2023-02-16T04:54:35;102255.03;;;10.09;82.59
39949;BME280;29070;48.102;-1.652;2023-02-16T04:59:35;102238.16;;;10.12;82.77
39949;BME280;29070;48.102;-1.652;2023-02-16T05:04:36;102246.88;;;10.13;82.54
39949;BME280;29070;48.102;-1.652;2023-02-16T05:09:36;102255.84;;;10.10;82.85
39949;BME280;29070;48.102;-1.652;2023-02-16T05:14:37;102255.03;;;10.09;83.01
39949;BME280;29070;48.102;-1.652;2023-02-16T05:19:48;102255.34;;;10.06;82.71
39949;BME280;29070;48.102;-1.652;2023-02-16T05:24:50;102256.84;;;10.09;83.04
39949;BME280;29070;48.102;-1.652;2023-02-16T05:29:50;102257.66;;;10.09;83.03
39949;BME280;29070;48.102;-1.652;2023-02-16T05:34:51;102245.38;;;10.10;82.98
39949;BME280;29070;48.102;-1.652;2023-02-16T05:39:51;102236.84;;;10.08;83.25
39949;BME280;29070;48.102;-1.652;2023-02-16T05:44:51;102242.38;;;10.05;83.39
39949;BME280;29070;48.102;-1.652;2023-02-16T05:49:52;102247.94;;;10.02;83.66
39949;BME280;29070;48.102;-1.652;2023-02-16T05:54:52;102246.00;;;10.04;83.81
39949;BME280;29070;48.102;-1.652;2023-02-16T05:59:53;102248.31;;;10.07;83.52
39949;BME280;29070;48.102;-1.652;2023-02-16T06:04:53;102252.56;;;10.08;83.67
39949;BME280;29070;48.102;-1.652;2023-02-16T06:09:53;102248.31;;;10.07;83.77
39949;BME280;29070;48.102;-1.652;2023-02-16T06:14:54;102257.31;;;10.04;83.90
39949;BME280;29070;48.102;-1.652;2023-02-16T06:19:55;102256.19;;;10.07;83.63
39949;BME280;29070;48.102;-1.652;2023-02-16T06:24:55;102251.59;;;10.09;84.01
39949;BME280;29070;48.102;-1.652;2023-02-16T06:29:55;102245.50;;;10.08;83.96
39949;BME280;29070;48.102;-1.652;2023-02-16T06:34:56;102256.53;;;10.12;84.08
39949;BME280;29070;48.102;-1.652;2023-02-16T06:39:56;102271.00;;;10.16;84.17
39949;BME280;29070;48.102;-1.652;2023-02-16T06:44:56;102258.84;;;10.15;83.95
39949;BME280;29070;48.102;-1.652;2023-02-16T06:49:57;102260.50;;;10.16;84.04
39949;BME280;29070;48.102;-1.652;2023-02-16T06:54:57;102272.63;;;10.17;84.18
39949;BME280;29070;48.102;-1.652;2023-02-16T06:59:57;102287.56;;;10.17;84.16
39949;BME280;29070;48.102;-1.652;2023-02-16T07:04:58;102296.41;;;10.16;84.16
39949;BME280;29070;48.102;-1.652;2023-02-16T07:09:58;102307.41;;;10.19;84.33
39949;BME280;29070;48.102;-1.652;2023-02-16T07:14:59;102311.69;;;10.20;84.46
39949;BME280;29070;48.102;-1.652;2023-02-16T07:19:59;102328.59;;;10.18;84.52
39949;BME280;29070;48.102;-1.652;2023-02-16T07:24:59;102342.53;;;10.18;84.05
39949;BME280;29070;48.102;-1.652;2023-02-16T07:30:00;102336.13;;;10.21;84.59
39949;BME280;29070;48.102;-1.652;2023-02-16T07:35:00;102325.34;;;10.24;84.55
39949;BME280;29070;48.102;-1.652;2023-02-16T07:40:00;102336.78;;;10.23;84.72
39949;BME280;29070;48.102;-1.652;2023-02-16T07:45:01;102343.84;;;10.22;84.66
39949;BME280;29070;48.102;-1.652;2023-02-16T07:50:01;102346.03;;;10.27;84.77
39949;BME280;29070;48.102;-1.652;2023-02-16T07:55:02;102348.50;;;10.28;84.62
39949;BME280;29070;48.102;-1.652;2023-02-16T08:00:04;102342.97;;;10.32;84.51
39949;BME280;29070;48.102;-1.652;2023-02-16T08:05:06;102352.66;;;10.31;84.52
39949;BME280;29070;48.102;-1.652;2023-02-16T08:10:07;102346.09;;;10.35;84.69
39949;BME280;29070;48.102;-1.652;2023-02-16T08:15:08;102352.72;;;10.39;84.66
39949;BME280;29070;48.102;-1.652;2023-02-16T08:20:09;102352.53;;;10.41;84.76
39949;BME280;29070;48.102;-1.652;2023-02-16T08:25:09;102348.94;;;10.42;84.63
39949;BME280;29070;48.102;-1.652;2023-02-16T08:30:11;102345.88;;;10.46;84.79
39949;BME280;29070;48.102;-1.652;2023-02-16T08:35:12;102359.38;;;10.52;84.58
39949;BME280;29070;48.102;-1.652;2023-02-16T08:40:14;102362.50;;;10.55;84.78
39949;BME280;29070;48.102;-1.652;2023-02-16T08:45:15;102369.47;;;10.64;84.82
39949;BME280;29070;48.102;-1.652;2023-02-16T08:50:15;102370.47;;;10.72;84.75
39949;BME280;29070;48.102;-1.652;2023-02-16T08:55:16;102368.03;;;10.78;84.75
39949;BME280;29070;48.102;-1.652;2023-02-16T09:00:17;102373.19;;;10.88;84.32
39949;BME280;29070;48.102;-1.652;2023-02-16T09:05:33;102381.28;;;10.95;84.58
39949;BME280;29070;48.102;-1.652;2023-02-16T09:10:34;102398.59;;;11.05;84.43
39949;BME280;29070;48.102;-1.652;2023-02-16T09:15:35;102391.56;;;11.14;84.66
39949;BME280;29070;48.102;-1.652;2023-02-16T09:20:37;102396.69;;;11.24;84.59
39949;BME280;29070;48.102;-1.652;2023-02-16T09:25:39;102398.06;;;11.36;84.35
39949;BME280;29070;48.102;-1.652;2023-02-16T09:30:40;102397.41;;;11.42;84.36
39949;BME280;29070;48.102;-1.652;2023-02-16T09:35:40;102407.97;;;11.51;84.18
39949;BME280;29070;48.102;-1.652;2023-02-16T09:40:42;102399.44;;;11.49;83.78
39949;BME280;29070;48.102;-1.652;2023-02-16T09:45:46;102409.16;;;11.64;83.98
39949;BME280;29070;48.102;-1.652;2023-02-16T09:50:49;102407.69;;;11.70;83.68
39949;BME280;29070;48.102;-1.652;2023-02-16T10:11:54;102415.84;;;12.01;83.20
39949;BME280;29070;48.102;-1.652;2023-02-16T10:22:03;102414.88;;;12.11;82.42
39949;BME280;29070;48.102;-1.652;2023-02-16T10:27:06;102410.94;;;12.15;81.05
39949;BME280;29070;48.102;-1.652;2023-02-16T10:32:26;102420.31;;;12.17;81.58
39949;BME280;29070;48.102;-1.652;2023-02-16T10:42:48;102429.84;;;12.27;80.79
39949;BME280;29070;48.102;-1.652;2023-02-16T10:47:52;102431.69;;;12.34;80.63
39949;BME280;29070;48.102;-1.652;2023-02-16T10:52:57;102433.97;;;12.37;80.53
39949;BME280;29070;48.102;-1.652;2023-02-16T10:58:00;102427.72;;;12.38;80.70
39949;BME280;29070;48.102;-1.652;2023-02-16T11:03:01;102423.78;;;12.34;80.16
39949;BME280;29070;48.102;-1.652;2023-02-16T11:08:02;102418.16;;;12.37;80.30
39949;BME280;29070;48.102;-1.652;2023-02-16T11:13:03;102429.38;;;12.39;80.17
39949;BME280;29070;48.102;-1.652;2023-02-16T11:18:27;102423.59;;;12.44;79.94
39949;BME280;29070;48.102;-1.652;2023-02-16T11:23:36;102418.34;;;12.52;80.39
39949;BME280;29070;48.102;-1.652;2023-02-16T11:28:42;102408.13;;;12.57;79.86
39949;BME280;29070;48.102;-1.652;2023-02-16T11:39:28;102401.19;;;12.73;79.34
39949;BME280;29070;48.102;-1.652;2023-02-16T11:44:32;102409.59;;;12.68;78.41
39949;BME280;29070;48.102;-1.652;2023-02-16T11:54:34;102395.91;;;12.81;78.58
39949;BME280;29070;48.102;-1.652;2023-02-16T11:59:39;102386.34;;;12.88;78.56
39949;BME280;29070;48.102;-1.652;2023-02-16T12:10:07;102387.25;;;13.04;78.48
39949;BME280;29070;48.102;-1.652;2023-02-16T12:20:39;102371.91;;;13.15;78.35
39949;BME280;29070;48.102;-1.652;2023-02-16T12:41:49;102355.22;;;13.31;77.94
39949;BME280;29070;48.102;-1.652;2023-02-16T12:47:00;102348.25;;;13.39;77.64
39949;BME280;29070;48.102;-1.652;2023-02-16T12:52:06;102352.66;;;13.46;77.91
39949;BME280;29070;48.102;-1.652;2023-02-16T12:57:13;102352.44;;;13.56;77.58
39949;BME280;29070;48.102;-1.652;2023-02-16T13:02:21;102357.34;;;13.59;77.45
39949;BME280;29070;48.102;-1.652;2023-02-16T13:07:30;102352.63;;;13.54;77.38
39949;BME280;29070;48.102;-1.652;2023-02-16T13:12:41;102343.91;;;13.54;77.50
39949;BME280;29070;48.102;-1.652;2023-02-16T13:17:50;102340.31;;;13.47;77.25
39949;BME280;29070;48.102;-1.652;2023-02-16T13:28:42;102335.78;;;13.32;77.08
39949;BME280;29070;48.102;-1.652;2023-02-16T13:34:02;102333.13;;;13.32;77.54
39949;BME280;29070;48.102;-1.652;2023-02-16T13:39:17;102331.31;;;13.33;77.40
39949;BME280;29070;48.102;-1.652;2023-02-16T13:44:49;102327.53;;;13.27;77.49
39949;BME280;29070;48.102;-1.652;2023-02-16T13:49:56;102331.78;;;13.28;77.36
39949;BME280;29070;48.102;-1.652;2023-02-16T13:54:59;102320.25;;;13.29;77.41
39949;BME280;29070;48.102;-1.652;2023-02-16T14:00:03;102318.59;;;13.28;77.69
39949;BME280;29070;48.102;-1.652;2023-02-16T14:05:09;102322.13;;;13.21;77.64
39949;BME280;29070;48.102;-1.652;2023-02-16T14:10:12;102324.91;;;13.19;77.72
39949;BME280;29070;48.102;-1.652;2023-02-16T14:15:18;102317.66;;;13.21;78.03
39949;BME280;29070;48.102;-1.652;2023-02-16T14:35:36;102324.78;;;13.12;78.37
39949;BME280;29070;48.102;-1.652;2023-02-16T14:40:41;102325.94;;;13.18;78.38
39949;BME280;29070;48.102;-1.652;2023-02-16T14:57:01;102336.19;;;13.05;78.80
39949;BME280;29070;48.102;-1.652;2023-02-16T15:02:30;102324.31;;;13.09;78.97
39949;BME280;29070;48.102;-1.652;2023-02-16T15:07:30;102325.97;;;13.10;78.80
39949;BME280;29070;48.102;-1.652;2023-02-16T15:12:31;102322.50;;;13.09;78.67
39949;BME280;29070;48.102;-1.652;2023-02-16T15:17:36;102314.75;;;13.08;79.12
39949;BME280;29070;48.102;-1.652;2023-02-16T15:22:38;102311.97;;;13.09;79.10
39949;BME280;29070;48.102;-1.652;2023-02-16T15:27:57;102303.91;;;13.03;79.36
39949;BME280;29070;48.102;-1.652;2023-02-16T15:33:01;102313.97;;;12.99;79.41
39949;BME280;29070;48.102;-1.652;2023-02-16T15:38:23;102321.72;;;13.01;79.47
39949;BME280;29070;48.102;-1.652;2023-02-16T15:48:34;102324.69;;;12.97;79.62
39949;BME280;29070;48.102;-1.652;2023-02-16T15:53:49;102310.53;;;12.99;79.43
39949;BME280;29070;48.102;-1.652;2023-02-16T15:58:51;102308.38;;;13.02;79.79
39949;BME280;29070;48.102;-1.652;2023-02-16T16:03:52;102304.09;;;13.01;79.85
39949;BME280;29070;48.102;-1.652;2023-02-16T16:08:52;102304.25;;;13.00;79.92
39949;BME280;29070;48.102;-1.652;2023-02-16T16:13:53;102302.75;;;13.05;80.21
39949;BME280;29070;48.102;-1.652;2023-02-16T16:18:53;102299.94;;;13.07;80.24
39949;BME280;29070;48.102;-1.652;2023-02-16T16:28:56;102298.00;;;13.01;80.51
39949;BME280;29070;48.102;-1.652;2023-02-16T16:49:47;102305.53;;;13.04;80.81
39949;BME280;29070;48.102;-1.652;2023-02-16T16:54:49;102307.53;;;13.02;80.81
39949;BME280;29070;48.102;-1.652;2023-02-16T16:59:50;102309.19;;;13.03;80.88
39949;BME280;29070;48.102;-1.652;2023-02-16T17:04:51;102315.44;;;13.02;80.99
39949;BME280;29070;48.102;-1.652;2023-02-16T17:09:51;102315.31;;;12.95;81.05
39949;BME280;29070;48.102;-1.652;2023-02-16T17:14:52;102298.34;;;12.97;81.08
39949;BME280;29070;48.102;-1.652;2023-02-16T17:19:53;102299.03;;;12.91;81.18
39949;BME280;29070;48.102;-1.652;2023-02-16T17:24:53;102301.00;;;12.89;81.39
39949;BME280;29070;48.102;-1.652;2023-02-16T17:29:53;102310.22;;;12.93;81.53
39949;BME280;29070;48.102;-1.652;2023-02-16T17:34:54;102313.53;;;12.87;81.42
39949;BME280;29070;48.102;-1.652;2023-02-16T17:39:54;102317.66;;;12.82;81.74
39949;BME280;29070;48.102;-1.652;2023-02-16T17:44:54;102329.06;;;12.74;81.85
39949;BME280;29070;48.102;-1.652;2023-02-16T17:49:55;102328.41;;;12.72;81.99
39949;BME280;29070;48.102;-1.652;2023-02-16T17:54:55;102328.91;;;12.75;81.92
39949;BME280;29070;48.102;-1.652;2023-02-16T17:59:55;102331.00;;;12.80;81.88
39949;BME280;29070;48.102;-1.652;2023-02-16T18:04:56;102328.53;;;12.78;82.14
39949;BME280;29070;48.102;-1.652;2023-02-16T18:09:56;102340.09;;;12.77;82.20
39949;BME280;29070;48.102;-1.652;2023-02-16T18:14:57;102339.28;;;12.77;82.30
39949;BME280;29070;48.102;-1.652;2023-02-16T18:19:57;102335.16;;;12.74;82.33
39949;BME280;29070;48.102;-1.652;2023-02-16T18:24:57;102335.78;;;12.76;82.35
39949;BME280;29070;48.102;-1.652;2023-02-16T18:29:58;102352.78;;;12.74;82.48
39949;BME280;29070;48.102;-1.652;2023-02-16T18:34:58;102352.44;;;12.77;82.45
39949;BME280;29070;48.102;-1.652;2023-02-16T18:39:58;102356.38;;;12.73;82.63
39949;BME280;29070;48.102;-1.652;2023-02-16T18:44:59;102360.34;;;12.77;82.71
39949;BME280;29070;48.102;-1.652;2023-02-16T18:49:59;102367.41;;;12.76;82.59
39949;BME280;29070;48.102;-1.652;2023-02-16T18:55:00;102370.91;;;12.69;82.69
39949;BME280;29070;48.102;-1.652;2023-02-16T19:00:00;102365.31;;;12.72;82.66
39949;BME280;29070;48.102;-1.652;2023-02-16T19:05:01;102365.94;;;12.74;82.75
39949;BME280;29070;48.102;-1.652;2023-02-16T19:10:02;102381.09;;;12.72;82.89
39949;BME280;29070;48.102;-1.652;2023-02-16T19:15:03;102386.38;;;12.72;82.92
39949;BME280;29070;48.102;-1.652;2023-02-16T19:20:07;102402.66;;;12.67;83.05
39949;BME280;29070;48.102;-1.652;2023-02-16T19:25:10;102410.25;;;12.62;83.29
39949;BME280;29070;48.102;-1.652;2023-02-16T19:30:11;102410.09;;;12.64;83.34
39949;BME280;29070;48.102;-1.652;2023-02-16T19:35:11;102413.38;;;12.66;83.22
39949;BME280;29070;48.102;-1.652;2023-02-16T19:40:12;102425.41;;;12.60;83.46
39949;BME280;29070;48.102;-1.652;2023-02-16T19:45:12;102438.91;;;12.57;83.64
39949;BME280;29070;48.102;-1.652;2023-02-16T19:50:13;102434.28;;;12.59;83.58
39949;BME280;29070;48.102;-1.652;2023-02-16T19:55:13;102427.22;;;12.59;83.78
39949;BME280;29070;48.102;-1.652;2023-02-16T20:00:14;102437.75;;;12.68;83.64
39949;BME280;29070;48.102;-1.652;2023-02-16T20:05:15;102448.28;;;12.68;83.70
39949;BME280;29070;48.102;-1.652;2023-02-16T20:10:15;102446.31;;;12.70;83.69
39949;BME280;29070;48.102;-1.652;2023-02-16T20:15:15;102448.28;;;12.68;83.96
39949;BME280;29070;48.102;-1.652;2023-02-16T20:20:16;102448.63;;;12.65;83.93
39949;BME280;29070;48.102;-1.652;2023-02-16T20:25:17;102434.13;;;12.61;83.98
39949;BME280;29070;48.102;-1.652;2023-02-16T20:30:20;102446.81;;;12.57;84.15
39949;BME280;29070;48.102;-1.652;2023-02-16T20:35:20;102447.31;;;12.52;84.13
39949;BME280;29070;48.102;-1.652;2023-02-16T20:40:21;102458.00;;;12.51;84.45
39949;BME280;29070;48.102;-1.652;2023-02-16T20:45:21;102451.56;;;12.53;84.24
39949;BME280;29070;48.102;-1.652;2023-02-16T20:50:24;102451.25;;;12.56;84.38
39949;BME280;29070;48.102;-1.652;2023-02-16T20:55:24;102439.06;;;12.55;84.51
39949;BME280;29070;48.102;-1.652;2023-02-16T21:00:25;102431.00;;;12.57;84.54
39949;BME280;29070;48.102;-1.652;2023-02-16T21:05:26;102441.69;;;12.64;84.70
39949;BME280;29070;48.102;-1.652;2023-02-16T21:10:26;102433.81;;;12.64;84.71
39949;BME280;29070;48.102;-1.652;2023-02-16T21:15:27;102441.22;;;12.60;84.80
39949;BME280;29070;48.102;-1.652;2023-02-16T21:20:27;102436.75;;;12.61;85.01
39949;BME280;29070;48.102;-1.652;2023-02-16T21:25:28;102433.97;;;12.62;84.74
39949;BME280;29070;48.102;-1.652;2023-02-16T21:30:29;102434.13;;;12.61;84.82
39949;BME280;29070;48.102;-1.652;2023-02-16T21:35:31;102437.75;;;12.59;84.82
39949;BME280;29070;48.102;-1.652;2023-02-16T21:40:31;102445.81;;;12.58;84.91
39949;BME280;29070;48.102;-1.652;2023-02-16T21:45:58;102445.50;;;12.53;85.08
39949;BME280;29070;48.102;-1.652;2023-02-16T21:51:01;102445.50;;;12.53;85.01
39949;BME280;29070;48.102;-1.652;2023-02-16T21:56:06;102442.22;;;12.51;85.08
39949;BME280;29070;48.102;-1.652;2023-02-16T22:01:37;102455.53;;;12.49;85.26
39949;BME280;29070;48.102;-1.652;2023-02-16T22:06:41;102448.63;;;12.48;85.42
39949;BME280;29070;48.102;-1.652;2023-02-16T22:11:42;102461.63;;;12.50;85.38
39949;BME280;29070;48.102;-1.652;2023-02-16T22:16:45;102465.41;;;12.47;85.63
39949;BME280;29070;48.102;-1.652;2023-02-16T22:21:46;102467.03;;;12.48;85.56
39949;BME280;29070;48.102;-1.652;2023-02-16T22:26:47;102458.00;;;12.51;85.62
39949;BME280;29070;48.102;-1.652;2023-02-16T22:31:48;102467.38;;;12.53;85.63
39949;BME280;29070;48.102;-1.652;2023-02-16T22:36:49;102463.78;;;12.54;85.79
39949;BME280;29070;48.102;-1.652;2023-02-16T22:41:50;102464.44;;;12.56;85.79
39949;BME280;29070;48.102;-1.652;2023-02-16T22:46:50;102462.13;;;12.53;85.68
39949;BME280;29070;48.102;-1.652;2023-02-16T22:51:50;102460.97;;;12.56;85.76
39949;BME280;29070;48.102;-1.652;2023-02-16T22:56:51;102459.47;;;12.53;85.90
39949;BME280;29070;48.102;-1.652;2023-02-16T23:01:51;102467.88;;;12.49;85.90
39949;BME280;29070;48.102;-1.652;2023-02-16T23:06:51;102463.28;;;12.51;85.90
39949;BME280;29070;48.102;-1.652;2023-02-16T23:11:52;102467.38;;;12.53;85.93
39949;BME280;29070;48.102;-1.652;2023-02-16T23:16:52;102481.06;;;12.49;86.16
39949;BME280;29070;48.102;-1.652;2023-02-16T23:21:53;102484.50;;;12.49;86.01
39949;BME280;29070;48.102;-1.652;2023-02-16T23:26:54;102479.91;;;12.51;86.03
39949;BME280;29070;48.102;-1.652;2023-02-16T23:31:55;102481.88;;;12.49;86.12
39949;BME280;29070;48.102;-1.652;2023-02-16T23:36:55;102469.38;;;12.51;86.14
39949;BME280;29070;48.102;-1.652;2023-02-16T23:41:56;102476.28;;;12.52;86.27
39949;BME280;29070;48.102;-1.652;2023-02-16T23:46:56;102486.16;;;12.50;86.27
39949;BME280;29070;48.102;-1.652;2023-02-16T23:51:56;102474.47;;;12.53;86.34
39949;BME280;29070;48.102;-1.652;2023-02-16T23:56:57;102469.03;;;12.54;86.32
